Time;durP1;ratioP1;P1;durP2;ratioP2;P2;SDS_P1;SDS_P2;PMS_P1;PMS_P2;Temp;Humidity;BMP_temperature;BMP_pressure;BME280_temperature;BME280_humidity;BME280_pressure;Samples;Min_cycle;Max_cycle;Signal;HPM_P1;HPM_P2
2021/10/28 00:13:53;;;;;;;0.20;0.20;;;;;;;11.16;100.00;99473.13;4992668;28;20022;-83
2021/10/28 00:16:33;;;;;;;0.40;0.40;;;;;;;11.18;100.00;99481.00;5007693;28;20045;-83
2021/10/28 00:19:03;;;;;;;0.30;0.30;;;;;;;11.17;100.00;99473.97;5008142;28;20026;-83
2021/10/28 00:21:37;;;;;;;0.30;0.30;;;;;;;11.13;100.00;99457.41;4975382;28;20530;-81
2021/10/28 00:24:05;;;;;;;0.20;0.20;;;;;;;11.14;100.00;99461.78;5007796;28;20022;-79
2021/10/28 00:26:33;;;;;;;0.30;0.30;;;;;;;11.10;100.00;99454.34;4975257;28;20045;-82
2021/10/28 00:29:05;;;;;;;0.30;0.30;;;;;;;11.11;100.00;99462.19;4991491;28;20034;-79
2021/10/28 00:31:33;;;;;;;0.30;0.30;;;;;;;11.13;100.00;99459.28;4975167;28;20461;-82
2021/10/28 00:34:00;;;;;;;0.30;0.30;;;;;;;11.08;100.00;99461.78;4991608;28;20034;-80
2021/10/28 00:36:26;;;;;;;0.20;0.20;;;;;;;11.08;100.00;99464.47;4991417;28;20030;-80
2021/10/28 00:38:53;;;;;;;0.20;0.20;;;;;;;11.05;100.00;99467.59;4974840;28;20026;-81
2021/10/28 00:41:20;;;;;;;0.20;0.20;;;;;;;10.97;100.00;99456.00;4991129;28;20117;-81
2021/10/28 00:43:51;;;;;;;0.20;0.20;;;;;;;10.92;100.00;99463.06;5007524;28;20030;-79
2021/10/28 00:46:18;;;;;;;0.20;0.20;;;;;;;10.85;100.00;99467.63;4991283;28;20041;-82
2021/10/28 00:48:46;;;;;;;0.30;0.30;;;;;;;10.90;100.00;99486.63;5007170;28;20070;-82
2021/10/28 00:51:12;;;;;;;0.20;0.20;;;;;;;10.86;100.00;99485.41;4992056;28;20072;-82
2021/10/28 00:53:38;;;;;;;0.30;0.30;;;;;;;10.82;100.00;99476.91;5007223;28;20026;-81
2021/10/28 00:56:04;;;;;;;0.30;0.30;;;;;;;10.81;100.00;99480.66;4958828;28;20030;-80
2021/10/28 00:58:35;;;;;;;0.30;0.30;;;;;;;10.78;100.00;99492.66;4990889;28;20038;-80
2021/10/28 01:01:03;;;;;;;0.30;0.30;;;;;;;10.75;100.00;99486.88;4991046;28;20038;-80
2021/10/28 01:03:29;;;;;;;0.30;0.30;;;;;;;10.81;100.00;99501.34;5007071;28;20133;-83
2021/10/28 01:05:55;;;;;;;0.20;0.20;;;;;;;10.77;100.00;99488.31;5007124;28;20443;-83
2021/10/28 01:08:21;;;;;;;0.30;0.30;;;;;;;10.86;100.00;99490.78;4992050;28;20034;-81
2021/10/28 01:10:48;;;;;;;0.20;0.20;;;;;;;10.88;100.00;99492.25;5007300;28;20049;-81
2021/10/28 01:13:15;;;;;;;0.20;0.20;;;;;;;10.91;100.00;99499.06;5007257;28;20066;-83
2021/10/28 01:15:41;;;;;;;0.30;0.30;;;;;;;10.85;100.00;99498.03;4990840;28;20054;-81
2021/10/28 01:18:12;;;;;;;0.30;0.30;;;;;;;10.91;100.00;99502.56;5007244;28;20022;-82
2021/10/28 01:20:43;;;;;;;0.20;0.20;;;;;;;10.91;100.00;99499.06;4991050;28;20181;-81
2021/10/28 01:23:11;;;;;;;0.30;0.30;;;;;;;10.92;100.00;99495.31;4990882;28;20030;-81
2021/10/28 01:25:40;;;;;;;0.30;0.30;;;;;;;10.93;100.00;99500.50;4974853;28;20022;-82
2021/10/28 01:28:14;;;;;;;0.20;0.20;;;;;;;10.91;100.00;99497.19;4958748;28;20065;-82
2021/10/28 01:30:39;;;;;;;0.28;0.28;;;;;;;10.91;100.00;99501.75;5007077;28;20030;-83
2021/10/28 01:33:05;;;;;;;0.30;0.30;;;;;;;10.91;100.00;99517.91;4974265;28;20037;-81
2021/10/28 01:35:31;;;;;;;0.25;0.25;;;;;;;10.91;100.00;99510.66;4958231;28;20100;-79
2021/10/28 01:37:56;;;;;;;0.22;0.22;;;;;;;10.91;100.00;99502.56;4958495;28;20056;-82
2021/10/28 01:40:22;;;;;;;0.30;0.30;;;;;;;10.95;100.00;99502.97;4990439;28;20042;-82
2021/10/28 01:42:49;;;;;;;0.30;0.30;;;;;;;10.94;100.00;99496.78;4958401;28;20179;-83
2021/10/28 01:45:19;;;;;;;0.30;0.30;;;;;;;10.88;100.00;99475.28;5006949;28;20097;-81
2021/10/28 01:47:44;;;;;;;0.30;0.30;;;;;;;10.93;100.00;99489.75;5006920;28;20030;-80
2021/10/28 01:50:11;;;;;;;0.30;0.30;;;;;;;10.91;100.00;99486.44;4990136;28;20026;-83
2021/10/28 01:52:39;;;;;;;0.25;0.25;;;;;;;10.98;100.00;99498.03;4958506;28;20037;-81
2021/10/28 01:55:07;;;;;;;0.30;0.30;;;;;;;10.99;100.00;99494.28;5006260;28;20030;-81
2021/10/28 01:57:33;;;;;;;0.30;0.30;;;;;;;11.02;100.00;99481.47;4990570;28;20027;-83
2021/10/28 01:59:58;;;;;;;0.82;0.82;;;;;;;11.03;100.00;99477.72;4990127;28;20034;-82
2021/10/28 02:02:24;;;;;;;0.20;0.20;;;;;;;11.02;100.00;99471.53;4990406;28;20122;-83
2021/10/28 02:04:49;;;;;;;0.30;0.30;;;;;;;11.03;100.00;99480.41;5006494;28;20090;-81
2021/10/28 02:07:15;;;;;;;0.30;0.30;;;;;;;11.03;100.00;99478.53;4974511;28;20037;-82
2021/10/28 02:09:41;;;;;;;0.73;0.73;;;;;;;11.04;100.00;99465.94;4993886;28;20476;-82
2021/10/28 02:12:07;;;;;;;0.30;0.30;;;;;;;11.00;100.00;99470.91;4993823;28;20026;-82
2021/10/28 02:14:32;;;;;;;0.30;0.30;;;;;;;11.03;100.00;99480.41;4977349;28;20484;-82
2021/10/28 02:16:58;;;;;;;0.30;0.30;;;;;;;11.05;100.00;99487.25;4994102;28;20041;-81
2021/10/28 02:19:24;;;;;;;0.30;0.30;;;;;;;11.04;100.00;99490.16;4977104;28;20026;-81
2021/10/28 02:21:49;;;;;;;0.30;0.30;;;;;;;11.07;100.00;99501.31;4961720;28;20345;-81
2021/10/28 02:24:15;;;;;;;0.30;0.30;;;;;;;11.08;100.00;99496.75;4994744;28;20018;-83
2021/10/28 02:26:41;;;;;;;0.30;0.30;;;;;;;11.11;100.00;99501.72;4993698;28;20041;-82
2021/10/28 02:29:07;;;;;;;0.30;0.30;;;;;;;11.14;100.00;99506.66;4994338;28;20034;-83
2021/10/28 02:31:33;;;;;;;0.30;0.30;;;;;;;11.13;100.00;99488.88;4993280;28;20026;-81
2021/10/28 02:33:59;;;;;;;0.30;0.30;;;;;;;11.15;100.00;99490.31;4993327;28;20030;-81
2021/10/28 02:36:24;;;;;;;0.20;0.20;;;;;;;11.16;100.00;99491.97;4993571;28;20032;-82
2021/10/28 02:38:50;;;;;;;0.20;0.20;;;;;;;11.17;100.00;99484.75;4961239;28;20034;-83
2021/10/28 02:41:16;;;;;;;0.30;0.30;;;;;;;11.20;100.00;99474.38;4993136;28;20468;-82
2021/10/28 02:43:41;;;;;;;0.30;0.30;;;;;;;11.21;100.00;99472.50;4993542;28;20542;-81
2021/10/28 02:46:08;;;;;;;0.20;0.20;;;;;;;11.23;100.00;99479.34;4993218;28;20045;-82
2021/10/28 02:48:33;;;;;;;0.30;0.30;;;;;;;11.22;100.00;99476.88;5009265;28;20435;-82
2021/10/28 02:50:59;;;;;;;0.30;0.30;;;;;;;11.22;100.00;99474.19;5009172;28;20106;-81
2021/10/28 02:53:25;;;;;;;0.25;0.25;;;;;;;11.23;100.00;99476.63;4993154;28;20030;-83
2021/10/28 02:55:50;;;;;;;0.20;0.20;;;;;;;11.23;100.00;99476.63;4993047;28;20030;-82
2021/10/28 02:58:18;;;;;;;0.20;0.20;;;;;;;11.24;100.00;99472.06;4977166;28;20460;-82
2021/10/28 03:00:44;;;;;;;0.30;0.30;;;;;;;11.23;100.00;99467.75;5009222;28;20753;-80
2021/10/28 03:03:10;;;;;;;0.30;0.30;;;;;;;11.25;100.00;99463.00;4992794;28;20034;-81
2021/10/28 03:05:36;;;;;;;0.30;0.30;;;;;;;11.26;100.00;99461.94;4993867;28;20088;-81
2021/10/28 03:08:02;;;;;;;0.30;0.30;;;;;;;11.28;100.00;99464.44;4993066;28;20022;-81
2021/10/28 03:10:28;;;;;;;0.28;0.28;;;;;;;11.25;100.00;99449.53;4976594;28;20619;-82
2021/10/28 03:12:55;;;;;;;0.40;0.40;;;;;;;11.25;100.00;99446.84;4992723;28;20027;-81
2021/10/28 03:15:22;;;;;;;0.20;0.20;;;;;;;11.26;100.00;99445.78;4992443;28;20109;-83
2021/10/28 03:26:00;;;;;;;0.30;0.30;;;;;;;11.24;100.00;99439.78;5006575;28;20018;-82
2021/10/28 03:28:20;;;;;;;0.30;0.30;;;;;;;11.24;100.00;99437.09;4993294;28;20114;-81
2021/10/28 03:30:47;;;;;;;0.35;0.35;;;;;;;11.22;100.00;99433.81;5008330;28;20034;-81
2021/10/28 03:33:20;;;;;;;0.30;0.30;;;;;;;11.22;100.00;99433.81;5008523;28;20027;-82
2021/10/28 03:35:47;;;;;;;0.30;0.30;;;;;;;11.21;100.00;99421.38;4976223;28;20019;-82
2021/10/28 03:38:28;;;;;;;0.20;0.20;;;;;;;11.21;100.00;99416.00;4976182;28;20041;-84
2021/10/28 03:49:32;;;;;;;0.30;0.30;;;;;;;11.16;100.00;99413.13;4994850;28;20030;-82
2021/10/28 04:17:53;;;;;;;0.30;0.30;;;;;;;10.93;100.00;99366.03;4994300;28;20026;-80
2021/10/28 04:30:50;;;;;;;0.30;0.30;;;;;;;10.92;100.00;99356.31;4993669;28;20030;-82
2021/10/28 04:33:16;;;;;;;0.20;0.20;;;;;;;10.92;100.00;99350.09;4992493;28;20074;-82
2021/10/28 04:35:41;;;;;;;0.30;0.30;;;;;;;10.91;100.00;99351.97;4975457;28;20357;-82
2021/10/28 04:38:07;;;;;;;0.30;0.30;;;;;;;10.87;100.00;99345.34;4991409;28;20037;-82
2021/10/28 04:40:33;;;;;;;0.30;0.30;;;;;;;10.86;100.00;99354.47;4991276;28;20048;-81
2021/10/28 04:42:58;;;;;;;0.25;0.25;;;;;;;10.86;100.00;99348.28;4959036;28;20064;-81
2021/10/28 04:45:24;;;;;;;0.30;0.30;;;;;;;10.87;100.00;99348.03;4991407;28;20076;-83
2021/10/28 04:47:49;;;;;;;0.30;0.30;;;;;;;10.85;100.00;99346.59;4991143;28;20030;-81
2021/10/28 04:50:15;;;;;;;0.30;0.30;;;;;;;10.84;100.00;99351.16;4990835;28;20029;-82
2021/10/28 04:52:41;;;;;;;0.30;0.30;;;;;;;10.75;100.00;99350.59;4974880;28;20037;-81
2021/10/28 04:55:07;;;;;;;0.30;0.30;;;;;;;10.68;100.00;99336.31;4992025;28;20030;-81
2021/10/28 04:57:32;;;;;;;0.85;0.65;;;;;;;10.64;100.00;99339.63;4991862;28;20022;-83
2021/10/28 04:59:58;;;;;;;0.30;0.30;;;;;;;10.58;100.00;99341.31;4991169;28;20038;-83
2021/10/28 05:02:24;;;;;;;0.30;0.30;;;;;;;10.57;100.00;99350.41;4991017;28;20432;-80
2021/10/28 05:04:49;;;;;;;0.45;0.45;;;;;;;10.51;100.00;99343.22;4974987;28;20036;-82
2021/10/28 05:07:15;;;;;;;0.20;0.20;;;;;;;10.52;100.00;99342.16;4990805;28;20031;-81
2021/10/28 05:09:41;;;;;;;0.30;0.30;;;;;;;10.48;100.00;99330.19;4991018;28;20041;-83
2021/10/28 05:12:08;;;;;;;0.30;0.30;;;;;;;10.48;100.00;99336.38;4990512;28;20030;-82
2021/10/28 05:14:34;;;;;;;0.65;0.65;;;;;;;10.46;100.00;99338.47;4974546;28;20030;-84
2021/10/28 05:16:59;;;;;;;0.30;0.30;;;;;;;10.43;100.00;99344.25;4974971;28;20419;-82
2021/10/28 05:19:26;;;;;;;0.30;0.30;;;;;;;10.40;100.00;99341.13;5006804;28;20117;-81
2021/10/28 05:21:51;;;;;;;0.30;0.30;;;;;;;10.40;100.00;99342.00;4974797;28;20113;-82
2021/10/28 05:24:17;;;;;;;0.20;0.20;;;;;;;10.36;100.00;99330.00;5006888;28;20670;-85
2021/10/28 05:26:43;;;;;;;0.20;0.20;;;;;;;10.31;100.00;99330.63;4990916;28;20030;-82
2021/10/28 05:29:08;;;;;;;0.30;0.30;;;;;;;10.26;100.00;99325.00;4990548;28;20342;-82
2021/10/28 05:31:34;;;;;;;0.30;0.30;;;;;;;10.23;100.00;99330.81;4990469;28;20503;-82
2021/10/28 05:33:59;;;;;;;0.30;0.30;;;;;;;10.18;100.00;99324.41;4990717;28;20504;-83
2021/10/28 05:36:26;;;;;;;0.20;0.20;;;;;;;10.21;100.00;99334.72;4990784;28;20022;-83
2021/10/28 05:38:52;;;;;;;0.30;0.30;;;;;;;10.17;100.00;99334.34;4990760;28;20040;-83
2021/10/28 05:41:18;;;;;;;0.30;0.30;;;;;;;10.17;100.00;99333.50;5006858;28;20080;-82
2021/10/28 05:43:43;;;;;;;0.30;0.30;;;;;;;10.17;100.00;99328.13;4976683;28;20038;-81
2021/10/28 05:46:09;;;;;;;0.30;0.30;;;;;;;10.10;100.00;99302.09;4994631;28;20058;-82
2021/10/28 05:48:35;;;;;;;0.30;0.30;;;;;;;10.12;100.00;99291.16;4995312;28;20042;-83
2021/10/28 05:51:01;;;;;;;0.30;0.30;;;;;;;10.04;100.00;99284.13;4994244;28;20022;-80
2021/10/28 05:53:27;;;;;;;0.30;0.30;;;;;;;9.99;100.00;99275.88;4994041;28;20049;-84
2021/10/28 05:55:53;;;;;;;0.30;0.30;;;;;;;10.02;100.00;99283.50;4978062;28;20483;-83
2021/10/28 05:58:18;;;;;;;0.30;0.30;;;;;;;9.98;100.00;99279.59;4977638;28;20027;-81
2021/10/28 06:00:44;;;;;;;0.30;0.30;;;;;;;9.93;100.00;99290.16;4994460;28;20076;-80
2021/10/28 06:03:12;;;;;;;0.30;0.30;;;;;;;9.90;100.00;99288.69;4977869;28;20077;-85
2021/10/28 06:05:37;;;;;;;0.30;0.30;;;;;;;9.87;100.00;99278.38;4962010;28;20056;-81
2021/10/28 06:08:04;;;;;;;0.30;0.30;;;;;;;9.90;100.00;99280.66;4977695;28;20425;-80
2021/10/28 06:10:29;;;;;;;0.30;0.30;;;;;;;9.92;100.00;99283.09;4993858;28;20049;-81
2021/10/28 06:12:59;;;;;;;0.30;0.30;;;;;;;9.97;100.00;99291.38;4993920;28;20469;-81
2021/10/28 06:15:27;;;;;;;0.30;0.30;;;;;;;9.99;100.00;99283.13;4993674;28;20061;-82
2021/10/28 06:20:45;;;;;;;0.30;0.30;;;;;;;10.01;100.00;99273.81;4978501;28;20096;-79
2021/10/28 06:23:12;;;;;;;0.30;0.30;;;;;;;10.06;100.00;99274.03;4993350;28;20030;-81
2021/10/28 06:25:38;;;;;;;0.30;0.30;;;;;;;10.03;100.00;99274.44;4977465;28;20085;-79
2021/10/28 06:28:04;;;;;;;0.30;0.30;;;;;;;10.00;100.00;99274.00;5009708;28;20022;-82
2021/10/28 06:30:30;;;;;;;0.30;0.30;;;;;;;9.94;100.00;99258.75;4993184;28;20380;-81
2021/10/28 06:33:00;;;;;;;0.30;0.30;;;;;;;9.89;100.00;99257.50;4993372;28;20476;-83
2021/10/28 06:35:26;;;;;;;0.30;0.30;;;;;;;9.87;100.00;99248.84;4994017;28;20189;-83
2021/10/28 06:37:52;;;;;;;0.30;0.30;;;;;;;9.87;100.00;99258.75;4993431;28;20029;-81
2021/10/28 06:40:23;;;;;;;0.30;0.30;;;;;;;9.83;100.00;99239.53;5009697;28;20026;-82
2021/10/28 06:42:49;;;;;;;0.32;0.32;;;;;;;9.81;100.00;99238.09;4961683;28;20111;-82
2021/10/28 06:45:16;;;;;;;0.40;0.40;;;;;;;9.80;100.00;99244.50;4993259;28;20480;-80
2021/10/28 06:47:41;;;;;;;0.50;0.50;;;;;;;9.74;100.00;99235.44;4993593;28;20050;-79
2021/10/28 06:50:12;;;;;;;0.30;0.30;;;;;;;9.74;100.00;99237.28;4992951;28;20037;-81
2021/10/28 07:03:28;;;;;;;0.20;0.20;;;;;;;9.65;100.00;99229.44;5009419;28;20034;-83
2021/10/28 07:05:58;;;;;;;0.30;0.30;;;;;;;9.59;100.00;99241.00;5008919;28;20474;-82
2021/10/28 07:08:24;;;;;;;0.30;0.30;;;;;;;9.54;100.00;99238.13;4992955;28;20476;-81
2021/10/28 07:10:52;;;;;;;0.22;0.22;;;;;;;9.50;100.00;99230.69;4992313;28;20105;-82
2021/10/28 07:13:22;;;;;;;0.30;0.30;;;;;;;9.49;100.00;99227.19;4976781;28;20342;-80
2021/10/28 07:15:54;;;;;;;0.30;0.30;;;;;;;9.45;100.00;99223.28;4992646;28;20030;-81
2021/10/28 07:32:21;;;;;;;0.30;0.30;;;;;;;9.30;100.00;99209.22;4992204;28;20080;-79
2021/10/28 08:23:15;;;;;;;0.20;0.20;;;;;;;10.25;100.00;99181.00;5007898;28;20041;-81
2021/10/28 08:31:03;;;;;;;0.20;0.20;;;;;;;10.41;100.00;99158.22;4992547;28;20030;-81
2021/10/28 08:33:29;;;;;;;0.28;0.28;;;;;;;10.49;100.00;99168.72;4992309;28;20380;-81
2021/10/28 08:36:06;;;;;;;0.22;0.22;;;;;;;10.55;100.00;99172.41;4992399;28;20080;-80
2021/10/28 08:38:33;;;;;;;0.30;0.30;;;;;;;10.55;100.00;99172.41;4992591;28;20050;-81
2021/10/28 08:40:59;;;;;;;0.30;0.30;;;;;;;10.60;100.00;99183.34;4991083;28;20105;-79
2021/10/28 08:43:27;;;;;;;0.30;0.30;;;;;;;10.68;100.00;99176.91;4975087;28;20121;-80
2021/10/28 08:45:53;;;;;;;0.30;0.30;;;;;;;10.73;100.00;99177.91;4975039;28;20034;-80
2021/10/28 08:48:24;;;;;;;0.30;0.30;;;;;;;10.80;100.00;99169.81;4991451;28;20128;-81
2021/10/28 08:51:00;;;;;;;0.30;0.30;;;;;;;10.92;100.00;99181.50;4991150;28;20026;-83
2021/10/28 08:53:35;;;;;;;0.30;0.30;;;;;;;11.00;100.00;99175.88;4992799;28;20034;-82
2021/10/28 08:56:04;;;;;;;0.20;0.20;;;;;;;11.11;100.00;99184.28;4991317;28;20026;-80
2021/10/28 09:26:43;;;;;;;0.30;0.30;;;;;;;11.72;100.00;99153.94;4994681;28;20373;-80
2021/10/28 09:31:56;;;;;;;0.30;0.30;;;;;;;11.82;100.00;99140.78;5010942;28;20027;-80
2021/10/28 09:48:45;;;;;;;0.20;0.20;;;;;;;12.72;100.00;99126.63;4995222;28;20026;-80
2021/10/28 09:51:15;;;;;;;0.30;0.30;;;;;;;12.82;100.00;99128.78;4994318;28;20122;-79
2021/10/28 09:59:55;;;;;;;10.75;7.97;;;;;;;13.12;100.00;99128.72;4969189;28;20077;-81
2021/10/28 10:02:34;;;;;;;6.82;6.35;;;;;;;13.09;100.00;99125.69;5010508;28;20034;-81
2021/10/28 10:05:17;;;;;;;6.13;4.13;;;;;;;13.00;100.00;99122.50;4993975;28;20022;-80
2021/10/28 10:07:56;;;;;;;1.17;1.08;;;;;;;12.84;100.00;99121.28;4994165;28;20515;-80
2021/10/28 10:10:24;;;;;;;2.60;2.50;;;;;;;12.69;100.00;99110.09;4993391;28;20037;-81
2021/10/28 10:12:51;;;;;;;0.40;0.40;;;;;;;12.56;100.00;99111.13;4995232;28;20026;-81
2021/10/28 10:15:17;;;;;;;0.40;0.40;;;;;;;12.44;100.00;99107.56;4977512;28;20460;-83
2021/10/28 10:17:57;;;;;;;0.55;0.55;;;;;;;12.38;100.00;99111.16;4961600;28;20034;-80
2021/10/28 10:20:38;;;;;;;0.30;0.30;;;;;;;12.35;100.00;99114.31;4977562;28;20077;-79
2021/10/28 10:25:50;;;;;;;0.20;0.20;;;;;;;12.51;100.00;99108.28;4993495;28;20018;-79
2021/10/28 12:44:51;;;;;;;0.50;0.50;;;;;;;13.71;100.00;99053.19;4991348;28;20026;-82
2021/10/28 15:30:23;;;;;;;5.68;1.05;;;;;;;12.38;100.00;99006.84;4992196;28;20018;-82
2021/10/28 15:35:39;;;;;;;2.85;0.95;;;;;;;12.22;100.00;99008.34;5006382;28;20037;-81
2021/10/28 15:41:10;;;;;;;2.60;1.10;;;;;;;12.10;100.00;99020.97;4993957;28;20042;-82
2021/10/28 16:23:54;;;;;;;4.32;1.23;;;;;;;11.56;100.00;99014.56;4991846;28;20023;-83
2021/10/28 16:26:20;;;;;;;6.25;1.05;;;;;;;11.45;100.00;99024.19;4958950;28;20037;-83
2021/10/28 16:28:46;;;;;;;9.75;1.33;;;;;;;11.36;100.00;99007.53;4975353;28;20590;-83
2021/10/28 16:31:14;;;;;;;8.52;2.13;;;;;;;11.36;100.00;99017.47;5007551;28;20026;-83
2021/10/28 16:33:41;;;;;;;13.40;1.80;;;;;;;11.26;100.00;99012.59;4975158;28;20026;-82
2021/10/28 16:36:07;;;;;;;5.30;1.33;;;;;;;11.21;100.00;99013.25;4991224;28;20026;-81
2021/10/28 16:38:33;;;;;;;10.10;1.60;;;;;;;11.24;100.00;99009.31;5007416;28;20032;-82
2021/10/28 16:40:59;;;;;;;3.78;1.27;;;;;;;11.21;100.00;99007.06;4991053;28;20026;-80
2021/10/28 16:43:25;;;;;;;8.23;1.73;;;;;;;11.22;100.00;99022.19;4975146;28;20034;-83
2021/10/28 16:45:51;;;;;;;9.68;2.60;;;;;;;11.13;100.00;99007.38;4990807;28;20030;-84
2021/10/28 16:48:17;;;;;;;7.65;1.92;;;;;;;11.09;100.00;99006.19;4990834;28;20026;-83
2021/10/28 16:50:43;;;;;;;18.70;4.65;;;;;;;11.15;100.00;99019.53;5007139;28;20030;-83
2021/10/28 16:53:08;;;;;;;20.73;4.80;;;;;;;11.03;100.00;98998.97;4974757;28;20036;-83
2021/10/28 16:55:35;;;;;;;22.52;7.65;;;;;;;11.04;100.00;99006.00;5007315;28;20069;-81
2021/10/28 16:58:01;;;;;;;19.15;7.45;;;;;;;11.05;100.00;99008.47;5006897;28;20034;-82
2021/10/28 17:00:27;;;;;;;16.05;6.25;;;;;;;10.97;100.00;99001.50;4958585;28;20049;-80
2021/10/28 17:02:53;;;;;;;22.38;6.63;;;;;;;10.93;100.00;99005.69;4991107;28;20109;-84
2021/10/28 17:05:18;;;;;;;23.70;9.88;;;;;;;10.92;100.00;99000.53;4991060;28;20110;-82
2021/10/28 17:07:45;;;;;;;24.33;7.45;;;;;;;10.85;100.00;99007.81;5006961;28;20072;-82
2021/10/28 17:10:10;;;;;;;30.60;12.35;;;;;;;10.77;100.00;99014.31;4974708;28;20022;-83
2021/10/28 17:12:37;;;;;;;26.10;9.95;;;;;;;10.63;100.00;99004.72;4958246;28;20479;-85
2021/10/28 17:15:08;;;;;;;32.95;12.65;;;;;;;10.59;100.00;99019.63;4990562;28;20046;-82
2021/10/28 17:17:34;;;;;;;18.48;9.30;;;;;;;10.52;100.00;99014.28;4958809;28;20069;-82
2021/10/28 17:20:05;;;;;;;21.40;9.55;;;;;;;10.45;100.00;99019.72;4990641;28;20101;-83
2021/10/28 17:22:35;;;;;;;38.88;14.85;;;;;;;10.45;100.00;99022.44;5006224;28;20026;-83
2021/10/28 17:25:03;;;;;;;57.95;24.77;;;;;;;10.40;100.00;99021.41;4974481;28;20042;-82
2021/10/28 17:27:29;;;;;;;77.53;34.22;;;;;;;10.37;100.00;99021.84;4974297;28;20030;-83
2021/10/28 17:29:55;;;;;;;87.28;36.15;;;;;;;10.34;100.00;99037.34;4990349;28;20034;-82
2021/10/28 17:32:21;;;;;;;73.63;29.85;;;;;;;10.27;100.00;99039.28;4974572;28;20134;-83
2021/10/28 17:34:46;;;;;;;43.90;19.70;;;;;;;10.27;100.00;99041.09;5007068;28;20089;-83
2021/10/28 17:37:12;;;;;;;68.88;25.15;;;;;;;10.22;100.00;99033.69;5007202;28;20034;-82
2021/10/28 17:39:38;;;;;;;52.47;18.73;;;;;;;10.21;100.00;99044.63;5009002;28;20018;-83
2021/10/28 17:42:04;;;;;;;34.75;12.10;;;;;;;10.13;100.00;99027.75;4995575;28;20380;-84
2021/10/28 17:44:37;;;;;;;19.63;7.40;;;;;;;10.18;100.00;99020.91;4978089;28;20026;-83
2021/10/28 17:47:04;;;;;;;15.93;5.68;;;;;;;10.19;100.00;99023.38;4994653;28;20046;-84
2021/10/28 17:49:30;;;;;;;51.20;20.90;;;;;;;10.13;100.00;99014.31;5010613;28;20030;-82
2021/10/28 17:51:56;;;;;;;38.63;16.23;;;;;;;10.07;100.00;99008.97;4977907;28;20044;-81
2021/10/28 17:54:21;;;;;;;136.90;48.92;;;;;;;10.08;100.00;99006.09;4977993;28;20198;-81
2021/10/28 17:56:47;;;;;;;63.20;23.15;;;;;;;10.04;100.00;98994.13;5010724;28;20046;-81
2021/10/28 17:59:13;;;;;;;26.63;9.27;;;;;;;10.09;100.00;99001.53;5010263;28;20054;-83
2021/10/28 18:01:39;;;;;;;44.13;15.13;;;;;;;10.01;100.00;98981.13;4994067;28;20427;-84
2021/10/28 18:04:06;;;;;;;15.45;4.75;;;;;;;10.05;100.00;98987.69;4977935;28;20054;-81
2021/10/28 18:06:32;;;;;;;23.05;6.55;;;;;;;10.04;100.00;98983.38;5010204;28;20023;-84
2021/10/28 18:09:02;;;;;;;33.95;12.68;;;;;;;10.01;100.00;98974.94;5010035;28;20085;-82
2021/10/28 18:11:28;;;;;;;17.63;7.78;;;;;;;9.95;100.00;98979.31;4978211;28;20058;-85
2021/10/28 18:13:58;;;;;;;11.90;3.42;;;;;;;9.84;100.00;98972.78;4993760;28;20060;-83
2021/10/28 18:16:28;;;;;;;12.43;3.90;;;;;;;9.85;100.00;98989.69;4977977;28;20076;-82
2021/10/28 18:18:55;;;;;;;37.30;14.55;;;;;;;9.84;100.00;98979.97;5009934;28;20376;-83
2021/10/28 18:21:25;;;;;;;37.13;15.65;;;;;;;9.87;100.00;98988.44;5009977;28;20073;-85
2021/10/28 18:23:55;;;;;;;47.47;21.40;;;;;;;9.89;100.00;98993.59;4993452;28;20022;-84
2021/10/28 18:26:23;;;;;;;28.20;10.23;;;;;;;9.90;100.00;99001.44;4977642;28;20539;-83
2021/10/28 18:28:50;;;;;;;25.98;13.38;;;;;;;9.90;100.00;99001.44;5009724;28;20038;-84
2021/10/28 18:31:16;;;;;;;34.03;14.13;;;;;;;9.93;100.00;99010.91;4977751;28;20028;-83
2021/10/28 18:33:43;;;;;;;25.58;12.45;;;;;;;9.90;100.00;99001.44;4977536;28;20049;-84
2021/10/28 18:36:11;;;;;;;33.75;16.77;;;;;;;9.93;100.00;99005.56;4977563;28;20034;-84
2021/10/28 18:38:37;;;;;;;46.35;20.27;;;;;;;9.89;100.00;98996.25;4977368;28;20049;-83
2021/10/28 18:41:04;;;;;;;50.60;21.90;;;;;;;9.85;100.00;98993.19;4977460;28;20026;-82
2021/10/28 18:43:31;;;;;;;69.35;29.15;;;;;;;9.84;100.00;99002.31;4993444;28;20027;-85
2021/10/28 18:45:58;;;;;;;162.98;65.88;;;;;;;9.77;100.00;98992.63;4977252;28;20113;-84
2021/10/28 18:48:25;;;;;;;77.18;36.28;;;;;;;9.79;100.00;98998.59;4961226;28;20476;-81
2021/10/28 18:50:53;;;;;;;45.40;19.50;;;;;;;9.80;100.00;99008.31;4976410;28;20049;-83
2021/10/28 18:53:18;;;;;;;57.35;22.40;;;;;;;9.75;100.00;99000.88;4977257;28;20041;-83
2021/10/28 18:55:44;;;;;;;55.08;19.67;;;;;;;9.74;100.00;99001.09;5009572;28;20022;-84
2021/10/28 18:58:10;;;;;;;84.55;34.83;;;;;;;9.72;100.00;98998.63;4993322;28;20029;-82
2021/10/28 19:00:36;;;;;;;53.75;25.83;;;;;;;9.68;100.00;98998.25;4977029;28;20610;-84
2021/10/28 19:03:03;;;;;;;39.67;18.05;;;;;;;9.74;100.00;99006.44;4976916;28;20037;-83
2021/10/28 19:05:29;;;;;;;60.92;23.05;;;;;;;9.65;100.00;98995.97;4976794;28;20105;-85
2021/10/28 19:07:55;;;;;;;51.00;19.15;;;;;;;9.68;100.00;99002.75;4977052;28;20030;-84
2021/10/28 19:10:22;;;;;;;45.90;20.08;;;;;;;9.59;100.00;98982.59;4977046;28;20058;-85
2021/10/28 19:12:48;;;;;;;40.97;17.70;;;;;;;9.63;100.00;98991.84;4992820;28;20030;-83
2021/10/28 19:15:15;;;;;;;37.90;16.70;;;;;;;9.62;100.00;98996.38;4992972;28;20041;-85
2021/10/28 19:17:45;;;;;;;42.10;18.20;;;;;;;9.66;100.00;99000.31;4992829;28;20069;-84
2021/10/28 19:20:11;;;;;;;39.65;17.02;;;;;;;9.64;100.00;98991.63;4976621;28;20057;-82
2021/10/28 19:22:37;;;;;;;42.30;19.92;;;;;;;9.58;100.00;98976.41;4993087;28;20030;-82
2021/10/28 19:25:05;;;;;;;63.50;34.42;;;;;;;9.66;100.00;98992.25;5008913;28;20372;-84
2021/10/28 19:27:30;;;;;;;62.90;32.05;;;;;;;9.65;100.00;98993.28;4976480;28;20037;-84
2021/10/28 19:30:13;;;;;;;68.75;34.67;;;;;;;9.66;100.00;98991.44;4993657;28;20037;-83
2021/10/28 19:32:38;;;;;;;81.40;36.45;;;;;;;9.63;100.00;98992.69;4977986;28;20125;-82
2021/10/28 19:35:05;;;;;;;70.85;32.58;;;;;;;9.60;100.00;98993.09;4976630;28;20105;-83
2021/10/28 19:47:49;;;;;;;53.13;23.58;;;;;;;9.57;100.00;98984.66;4992494;28;20026;-83
2021/10/28 19:50:15;;;;;;;54.40;25.38;;;;;;;9.54;100.00;98975.16;4976091;28;20034;-83
2021/10/28 19:52:42;;;;;;;59.08;26.52;;;;;;;9.53;100.00;98976.22;4975830;28;20525;-82
2021/10/28 19:55:08;;;;;;;70.82;30.38;;;;;;;9.51;100.00;98991.69;4975948;28;20348;-87
2021/10/28 19:57:40;;;;;;;77.45;30.67;;;;;;;9.44;100.00;98990.88;4991856;28;20184;-82
2021/10/28 20:08:01;;;;;;;68.47;25.83;;;;;;;9.07;100.00;98953.03;4992869;28;20030;-83
2021/10/28 20:21:29;;;;;;;60.05;27.50;;;;;;;8.91;100.00;98948.94;4978056;28;20173;-84
2021/10/28 20:23:55;;;;;;;62.50;26.45;;;;;;;8.96;100.00;98949.16;4975689;28;20037;-83
2021/10/28 20:26:21;;;;;;;59.13;25.08;;;;;;;9.03;100.00;98943.78;4991437;28;20032;-85
2021/10/28 20:28:48;;;;;;;57.30;22.60;;;;;;;9.16;100.00;98954.47;4975110;28;20073;-84
2021/10/28 20:31:18;;;;;;;53.17;20.17;;;;;;;9.23;100.00;98949.91;4992916;28;20022;-81
2021/10/28 20:33:49;;;;;;;52.30;19.38;;;;;;;9.24;100.00;98946.19;4975389;28;20106;-81
2021/10/28 20:39:00;;;;;;;50.65;22.00;;;;;;;9.24;100.00;98975.69;4993004;28;20120;-83
2021/10/28 20:41:27;;;;;;;43.60;17.95;;;;;;;9.31;100.00;98974.84;4959158;28;20037;-81
2021/10/28 20:43:53;;;;;;;40.35;17.55;;;;;;;9.34;100.00;98971.72;4975232;28;20506;-82
2021/10/28 20:46:21;;;;;;;53.72;26.98;;;;;;;9.37;100.00;98964.09;4975433;28;20029;-82
2021/10/28 20:48:52;;;;;;;57.80;27.33;;;;;;;9.40;100.00;98960.16;4975511;28;20041;-84
2021/10/28 20:51:19;;;;;;;75.68;27.50;;;;;;;9.44;100.00;98959.50;4990937;28;20050;-84
2021/10/28 20:53:44;;;;;;;53.28;22.27;;;;;;;9.40;100.00;98952.94;4990776;28;20101;-82
2021/10/28 20:56:10;;;;;;;46.90;19.63;;;;;;;9.56;100.00;98964.22;4990896;28;20114;-85
2021/10/28 20:58:37;;;;;;;41.55;19.15;;;;;;;9.55;100.00;98955.38;4958931;28;20081;-82
2021/10/28 21:01:03;;;;;;;39.00;18.58;;;;;;;9.60;100.00;98960.06;4991012;28;20037;-80